sensor_id;sensor_type;location;lat;lon;timestamp;P1;durP1;ratioP1;P2;durP2;ratioP2
74553;SDS011;63027;59.956;30.214;2022-08-24T00:02:06;13.05;;;7.20;;
74553;SDS011;63027;59.956;30.214;2022-08-24T00:04:32;13.07;;;7.00;;
74553;SDS011;63027;59.956;30.214;2022-08-24T00:06:59;10.73;;;6.82;;
74553;SDS011;63027;59.956;30.214;2022-08-24T00:09:26;11.07;;;7.03;;
74553;SDS011;63027;59.956;30.214;2022-08-24T00:11:53;10.90;;;6.43;;
74553;SDS011;63027;59.956;30.214;2022-08-24T00:14:19;10.85;;;7.00;;
74553;SDS011;63027;59.956;30.214;2022-08-24T00:16:44;14.95;;;7.50;;
74553;SDS011;63027;59.956;30.214;2022-08-24T00:19:10;13.43;;;6.55;;
74553;SDS011;63027;59.956;30.214;2022-08-24T00:21:36;11.40;;;7.28;;
74553;SDS011;63027;59.956;30.214;2022-08-24T00:24:03;15.00;;;7.15;;
74553;SDS011;63027;59.956;30.214;2022-08-24T00:26:30;13.13;;;7.50;;
74553;SDS011;63027;59.956;30.214;2022-08-24T00:28:56;12.10;;;7.05;;
74553;SDS011;63027;59.956;30.214;2022-08-24T00:31:23;11.68;;;6.95;;
74553;SDS011;63027;59.956;30.214;2022-08-24T00:33:49;13.95;;;7.32;;
74553;SDS011;63027;59.956;30.214;2022-08-24T00:36:15;11.02;;;7.03;;
74553;SDS011;63027;59.956;30.214;2022-08-24T00:38:41;12.65;;;6.60;;
74553;SDS011;63027;59.956;30.214;2022-08-24T00:41:07;14.63;;;7.85;;
74553;SDS011;63027;59.956;30.214;2022-08-24T00:43:33;12.38;;;6.97;;
74553;SDS011;63027;59.956;30.214;2022-08-24T00:46:11;14.23;;;7.82;;
74553;SDS011;63027;59.956;30.214;2022-08-24T00:48:41;10.85;;;7.13;;
74553;SDS011;63027;59.956;30.214;2022-08-24T00:51:19;12.88;;;7.30;;
74553;SDS011;63027;59.956;30.214;2022-08-24T00:53:49;16.02;;;7.93;;
74553;SDS011;63027;59.956;30.214;2022-08-24T00:56:18;15.02;;;8.60;;
74553;SDS011;63027;59.956;30.214;2022-08-24T00:59:09;13.32;;;7.47;;
74553;SDS011;63027;59.956;30.214;2022-08-24T01:01:37;12.18;;;7.90;;
74553;SDS011;63027;59.956;30.214;2022-08-24T01:04:04;13.07;;;8.23;;
74553;SDS011;63027;59.956;30.214;2022-08-24T01:06:30;15.40;;;8.27;;
74553;SDS011;63027;59.956;30.214;2022-08-24T01:08:58;12.05;;;7.65;;
74553;SDS011;63027;59.956;30.214;2022-08-24T01:11:25;14.30;;;7.88;;
74553;SDS011;63027;59.956;30.214;2022-08-24T01:13:52;11.27;;;7.38;;
74553;SDS011;63027;59.956;30.214;2022-08-24T01:16:19;15.55;;;7.93;;
74553;SDS011;63027;59.956;30.214;2022-08-24T01:19:08;18.42;;;8.88;;
74553;SDS011;63027;59.956;30.214;2022-08-24T01:24:50;13.05;;;7.55;;
74553;SDS011;63027;59.956;30.214;2022-08-24T01:27:16;15.82;;;8.55;;
74553;SDS011;63027;59.956;30.214;2022-08-24T01:29:43;16.15;;;8.48;;
74553;SDS011;63027;59.956;30.214;2022-08-24T01:32:10;16.42;;;8.52;;
74553;SDS011;63027;59.956;30.214;2022-08-24T01:34:36;17.73;;;8.13;;
74553;SDS011;63027;59.956;30.214;2022-08-24T01:37:02;15.20;;;7.60;;
74553;SDS011;63027;59.956;30.214;2022-08-24T01:39:30;14.60;;;7.93;;
74553;SDS011;63027;59.956;30.214;2022-08-24T01:41:58;16.83;;;8.02;;
74553;SDS011;63027;59.956;30.214;2022-08-24T01:44:25;14.75;;;8.25;;
74553;SDS011;63027;59.956;30.214;2022-08-24T01:46:54;15.82;;;8.30;;
74553;SDS011;63027;59.956;30.214;2022-08-24T01:49:23;15.35;;;8.15;;
74553;SDS011;63027;59.956;30.214;2022-08-24T01:51:50;15.77;;;8.00;;
74553;SDS011;63027;59.956;30.214;2022-08-24T01:54:16;14.93;;;8.07;;
74553;SDS011;63027;59.956;30.214;2022-08-24T01:56:42;13.90;;;8.55;;
74553;SDS011;63027;59.956;30.214;2022-08-24T01:59:09;13.82;;;8.10;;
74553;SDS011;63027;59.956;30.214;2022-08-24T02:01:41;18.00;;;8.18;;
74553;SDS011;63027;59.956;30.214;2022-08-24T02:04:09;18.42;;;8.50;;
74553;SDS011;63027;59.956;30.214;2022-08-24T02:06:36;15.82;;;7.80;;
74553;SDS011;63027;59.956;30.214;2022-08-24T02:09:06;14.27;;;7.72;;
74553;SDS011;63027;59.956;30.214;2022-08-24T02:11:31;15.40;;;8.68;;
74553;SDS011;63027;59.956;30.214;2022-08-24T02:13:58;18.20;;;8.68;;
74553;SDS011;63027;59.956;30.214;2022-08-24T02:16:25;16.05;;;8.40;;
74553;SDS011;63027;59.956;30.214;2022-08-24T02:18:52;14.15;;;8.57;;
74553;SDS011;63027;59.956;30.214;2022-08-24T02:21:17;14.35;;;8.15;;
74553;SDS011;63027;59.956;30.214;2022-08-24T02:23:45;12.77;;;8.05;;
74553;SDS011;63027;59.956;30.214;2022-08-24T02:26:11;17.45;;;7.68;;
74553;SDS011;63027;59.956;30.214;2022-08-24T02:28:37;15.00;;;8.55;;
74553;SDS011;63027;59.956;30.214;2022-08-24T02:31:04;13.95;;;7.97;;
74553;SDS011;63027;59.956;30.214;2022-08-24T02:33:32;12.95;;;8.38;;
74553;SDS011;63027;59.956;30.214;2022-08-24T02:35:58;18.60;;;8.60;;
74553;SDS011;63027;59.956;30.214;2022-08-24T02:38:25;18.02;;;9.20;;
74553;SDS011;63027;59.956;30.214;2022-08-24T02:40:51;18.85;;;8.52;;
74553;SDS011;63027;59.956;30.214;2022-08-24T02:43:17;16.48;;;8.93;;
74553;SDS011;63027;59.956;30.214;2022-08-24T02:45:45;16.67;;;8.30;;
74553;SDS011;63027;59.956;30.214;2022-08-24T02:48:12;15.77;;;8.32;;
74553;SDS011;63027;59.956;30.214;2022-08-24T02:50:43;15.82;;;8.55;;
74553;SDS011;63027;59.956;30.214;2022-08-24T02:53:11;17.92;;;8.27;;
74553;SDS011;63027;59.956;30.214;2022-08-24T02:55:39;14.25;;;8.00;;
74553;SDS011;63027;59.956;30.214;2022-08-24T02:58:06;16.85;;;8.32;;
74553;SDS011;63027;59.956;30.214;2022-08-24T03:00:33;20.15;;;9.07;;
74553;SDS011;63027;59.956;30.214;2022-08-24T03:03:00;15.43;;;8.20;;
74553;SDS011;63027;59.956;30.214;2022-08-24T03:05:27;15.95;;;8.30;;
74553;SDS011;63027;59.956;30.214;2022-08-24T03:07:53;15.95;;;8.00;;
74553;SDS011;63027;59.956;30.214;2022-08-24T03:10:21;13.90;;;8.02;;
74553;SDS011;63027;59.956;30.214;2022-08-24T03:12:48;15.55;;;8.80;;
74553;SDS011;63027;59.956;30.214;2022-08-24T03:15:15;15.40;;;8.38;;
74553;SDS011;63027;59.956;30.214;2022-08-24T03:17:41;22.25;;;8.82;;
74553;SDS011;63027;59.956;30.214;2022-08-24T03:20:09;15.85;;;7.50;;
74553;SDS011;63027;59.956;30.214;2022-08-24T03:22:38;14.98;;;8.27;;
74553;SDS011;63027;59.956;30.214;2022-08-24T03:25:05;14.55;;;7.68;;
74553;SDS011;63027;59.956;30.214;2022-08-24T03:27:31;15.90;;;8.00;;
74553;SDS011;63027;59.956;30.214;2022-08-24T03:29:57;14.82;;;8.27;;
74553;SDS011;63027;59.956;30.214;2022-08-24T03:32:23;16.98;;;8.10;;
74553;SDS011;63027;59.956;30.214;2022-08-24T03:34:49;13.40;;;8.55;;
74553;SDS011;63027;59.956;30.214;2022-08-24T03:37:16;12.18;;;8.18;;
74553;SDS011;63027;59.956;30.214;2022-08-24T03:39:42;17.30;;;7.65;;
74553;SDS011;63027;59.956;30.214;2022-08-24T03:42:08;18.52;;;8.40;;
74553;SDS011;63027;59.956;30.214;2022-08-24T03:44:33;17.25;;;8.52;;
74553;SDS011;63027;59.956;30.214;2022-08-24T03:46:59;15.35;;;8.38;;
74553;SDS011;63027;59.956;30.214;2022-08-24T03:49:27;13.77;;;8.15;;
74553;SDS011;63027;59.956;30.214;2022-08-24T03:51:53;12.45;;;7.47;;
74553;SDS011;63027;59.956;30.214;2022-08-24T03:54:21;14.15;;;7.93;;
74553;SDS011;63027;59.956;30.214;2022-08-24T03:56:47;16.58;;;8.30;;
74553;SDS011;63027;59.956;30.214;2022-08-24T03:59:13;14.35;;;7.80;;
74553;SDS011;63027;59.956;30.214;2022-08-24T04:01:41;19.73;;;7.50;;
74553;SDS011;63027;59.956;30.214;2022-08-24T04:04:08;19.55;;;7.60;;
74553;SDS011;63027;59.956;30.214;2022-08-24T04:06:35;16.38;;;7.68;;
74553;SDS011;63027;59.956;30.214;2022-08-24T04:09:02;17.83;;;8.20;;
74553;SDS011;63027;59.956;30.214;2022-08-24T04:11:32;15.55;;;7.20;;
74553;SDS011;63027;59.956;30.214;2022-08-24T04:13:58;16.17;;;6.90;;
74553;SDS011;63027;59.956;30.214;2022-08-24T04:16:25;17.42;;;7.05;;
74553;SDS011;63027;59.956;30.214;2022-08-24T04:19:00;14.50;;;6.63;;
74553;SDS011;63027;59.956;30.214;2022-08-24T04:21:28;12.25;;;7.07;;
74553;SDS011;63027;59.956;30.214;2022-08-24T04:23:58;19.02;;;6.82;;
74553;SDS011;63027;59.956;30.214;2022-08-24T04:26:26;15.60;;;7.53;;
74553;SDS011;63027;59.956;30.214;2022-08-24T04:28:53;14.02;;;7.05;;
74553;SDS011;63027;59.956;30.214;2022-08-24T04:31:19;19.05;;;7.20;;
74553;SDS011;63027;59.956;30.214;2022-08-24T04:33:46;13.10;;;7.10;;
74553;SDS011;63027;59.956;30.214;2022-08-24T04:36:14;14.65;;;6.72;;
74553;SDS011;63027;59.956;30.214;2022-08-24T04:38:42;15.25;;;6.18;;
74553;SDS011;63027;59.956;30.214;2022-08-24T04:41:46;11.25;;;6.05;;
74553;SDS011;63027;59.956;30.214;2022-08-24T04:44:14;16.42;;;6.38;;
74553;SDS011;63027;59.956;30.214;2022-08-24T04:46:40;15.57;;;5.78;;
74553;SDS011;63027;59.956;30.214;2022-08-24T04:49:07;15.77;;;5.70;;
74553;SDS011;63027;59.956;30.214;2022-08-24T04:51:33;15.18;;;6.75;;
74553;SDS011;63027;59.956;30.214;2022-08-24T04:53:59;16.25;;;7.05;;
74553;SDS011;63027;59.956;30.214;2022-08-24T04:56:25;14.57;;;7.05;;
74553;SDS011;63027;59.956;30.214;2022-08-24T04:58:55;16.73;;;7.00;;
74553;SDS011;63027;59.956;30.214;2022-08-24T05:01:22;16.88;;;6.35;;
74553;SDS011;63027;59.956;30.214;2022-08-24T05:03:51;18.13;;;6.15;;
74553;SDS011;63027;59.956;30.214;2022-08-24T05:06:19;15.95;;;5.97;;
74553;SDS011;63027;59.956;30.214;2022-08-24T05:08:49;13.75;;;6.10;;
74553;SDS011;63027;59.956;30.214;2022-08-24T05:11:15;13.10;;;6.28;;
74553;SDS011;63027;59.956;30.214;2022-08-24T05:13:42;10.35;;;5.97;;
74553;SDS011;63027;59.956;30.214;2022-08-24T05:16:10;17.92;;;7.25;;
74553;SDS011;63027;59.956;30.214;2022-08-24T05:18:40;20.20;;;7.32;;
74553;SDS011;63027;59.956;30.214;2022-08-24T05:21:07;17.40;;;6.90;;
74553;SDS011;63027;59.956;30.214;2022-08-24T05:23:34;14.85;;;6.20;;
74553;SDS011;63027;59.956;30.214;2022-08-24T05:26:07;15.48;;;6.53;;
74553;SDS011;63027;59.956;30.214;2022-08-24T05:28:34;14.43;;;6.40;;
74553;SDS011;63027;59.956;30.214;2022-08-24T05:31:05;19.20;;;7.07;;
74553;SDS011;63027;59.956;30.214;2022-08-24T05:33:38;17.85;;;8.15;;
74553;SDS011;63027;59.956;30.214;2022-08-24T05:36:05;20.17;;;8.15;;
74553;SDS011;63027;59.956;30.214;2022-08-24T05:38:42;21.88;;;7.95;;
74553;SDS011;63027;59.956;30.214;2022-08-24T05:41:08;17.58;;;7.10;;
74553;SDS011;63027;59.956;30.214;2022-08-24T05:43:35;14.27;;;7.45;;
74553;SDS011;63027;59.956;30.214;2022-08-24T05:46:01;15.43;;;6.25;;
74553;SDS011;63027;59.956;30.214;2022-08-24T05:48:28;15.40;;;6.72;;
74553;SDS011;63027;59.956;30.214;2022-08-24T05:51:06;16.42;;;5.80;;
74553;SDS011;63027;59.956;30.214;2022-08-24T05:53:38;18.48;;;6.15;;
74553;SDS011;63027;59.956;30.214;2022-08-24T05:56:06;16.73;;;6.38;;
74553;SDS011;63027;59.956;30.214;2022-08-24T05:58:35;16.27;;;6.72;;
74553;SDS011;63027;59.956;30.214;2022-08-24T06:03:37;13.52;;;6.25;;
74553;SDS011;63027;59.956;30.214;2022-08-24T06:06:06;14.90;;;6.22;;
74553;SDS011;63027;59.956;30.214;2022-08-24T06:08:33;19.75;;;6.57;;
74553;SDS011;63027;59.956;30.214;2022-08-24T06:11:01;11.57;;;6.00;;
74553;SDS011;63027;59.956;30.214;2022-08-24T06:13:28;16.48;;;6.68;;
74553;SDS011;63027;59.956;30.214;2022-08-24T06:16:05;14.90;;;6.68;;
74553;SDS011;63027;59.956;30.214;2022-08-24T06:18:32;16.38;;;6.72;;
74553;SDS011;63027;59.956;30.214;2022-08-24T06:21:07;18.83;;;6.20;;
74553;SDS011;63027;59.956;30.214;2022-08-24T06:23:38;14.93;;;6.70;;
74553;SDS011;63027;59.956;30.214;2022-08-24T06:26:06;21.00;;;7.05;;
74553;SDS011;63027;59.956;30.214;2022-08-24T06:28:51;15.07;;;6.75;;
74553;SDS011;63027;59.956;30.214;2022-08-24T06:31:19;16.85;;;6.70;;
74553;SDS011;63027;59.956;30.214;2022-08-24T06:33:46;18.38;;;6.65;;
74553;SDS011;63027;59.956;30.214;2022-08-24T06:36:12;13.50;;;6.80;;
74553;SDS011;63027;59.956;30.214;2022-08-24T06:38:38;22.42;;;7.63;;
74553;SDS011;63027;59.956;30.214;2022-08-24T06:41:04;17.33;;;6.25;;
74553;SDS011;63027;59.956;30.214;2022-08-24T06:43:30;18.80;;;7.03;;
74553;SDS011;63027;59.956;30.214;2022-08-24T06:46:00;19.52;;;7.13;;
74553;SDS011;63027;59.956;30.214;2022-08-24T06:48:31;19.50;;;7.63;;
74553;SDS011;63027;59.956;30.214;2022-08-24T06:50:58;19.13;;;7.43;;
74553;SDS011;63027;59.956;30.214;2022-08-24T06:53:25;18.60;;;7.32;;
74553;SDS011;63027;59.956;30.214;2022-08-24T06:55:54;17.27;;;6.28;;
74553;SDS011;63027;59.956;30.214;2022-08-24T06:58:25;24.67;;;7.47;;
74553;SDS011;63027;59.956;30.214;2022-08-24T07:00:55;13.43;;;6.65;;
74553;SDS011;63027;59.956;30.214;2022-08-24T07:03:22;17.90;;;6.70;;
74553;SDS011;63027;59.956;30.214;2022-08-24T07:05:55;18.98;;;6.93;;
74553;SDS011;63027;59.956;30.214;2022-08-24T07:08:41;19.10;;;6.88;;
74553;SDS011;63027;59.956;30.214;2022-08-24T07:11:08;19.23;;;6.53;;
74553;SDS011;63027;59.956;30.214;2022-08-24T07:13:35;14.18;;;6.53;;
74553;SDS011;63027;59.956;30.214;2022-08-24T07:16:01;22.27;;;7.25;;
74553;SDS011;63027;59.956;30.214;2022-08-24T07:18:28;15.65;;;7.20;;
74553;SDS011;63027;59.956;30.214;2022-08-24T07:20:54;21.17;;;6.60;;
74553;SDS011;63027;59.956;30.214;2022-08-24T07:23:25;16.20;;;6.05;;
74553;SDS011;63027;59.956;30.214;2022-08-24T07:25:50;18.08;;;6.13;;
74553;SDS011;63027;59.956;30.214;2022-08-24T07:28:19;19.33;;;6.47;;
74553;SDS011;63027;59.956;30.214;2022-08-24T07:30:44;15.85;;;6.53;;
74553;SDS011;63027;59.956;30.214;2022-08-24T07:33:12;17.30;;;5.97;;
74553;SDS011;63027;59.956;30.214;2022-08-24T07:35:39;10.48;;;5.47;;
74553;SDS011;63027;59.956;30.214;2022-08-24T07:38:06;11.00;;;6.38;;
74553;SDS011;63027;59.956;30.214;2022-08-24T07:40:32;15.98;;;5.95;;
74553;SDS011;63027;59.956;30.214;2022-08-24T07:42:59;18.60;;;6.65;;
74553;SDS011;63027;59.956;30.214;2022-08-24T07:45:25;24.10;;;7.25;;
74553;SDS011;63027;59.956;30.214;2022-08-24T07:47:53;17.88;;;6.68;;
74553;SDS011;63027;59.956;30.214;2022-08-24T07:50:30;19.38;;;6.63;;
74553;SDS011;63027;59.956;30.214;2022-08-24T07:52:56;15.50;;;7.07;;
74553;SDS011;63027;59.956;30.214;2022-08-24T07:55:22;19.13;;;6.85;;
74553;SDS011;63027;59.956;30.214;2022-08-24T07:57:48;16.85;;;7.15;;
74553;SDS011;63027;59.956;30.214;2022-08-24T08:00:15;18.13;;;6.47;;
74553;SDS011;63027;59.956;30.214;2022-08-24T08:02:48;15.90;;;6.78;;
74553;SDS011;63027;59.956;30.214;2022-08-24T08:05:17;19.98;;;7.97;;
74553;SDS011;63027;59.956;30.214;2022-08-24T08:07:48;18.23;;;6.93;;
74553;SDS011;63027;59.956;30.214;2022-08-24T08:10:14;18.27;;;8.10;;
74553;SDS011;63027;59.956;30.214;2022-08-24T08:12:40;21.70;;;7.60;;
74553;SDS011;63027;59.956;30.214;2022-08-24T08:15:07;23.38;;;8.45;;
74553;SDS011;63027;59.956;30.214;2022-08-24T08:17:36;24.27;;;8.00;;
74553;SDS011;63027;59.956;30.214;2022-08-24T08:20:04;17.13;;;7.03;;
74553;SDS011;63027;59.956;30.214;2022-08-24T08:22:31;22.10;;;7.28;;
74553;SDS011;63027;59.956;30.214;2022-08-24T08:25:31;20.02;;;7.25;;
74553;SDS011;63027;59.956;30.214;2022-08-24T08:27:59;26.00;;;8.25;;
74553;SDS011;63027;59.956;30.214;2022-08-24T08:30:25;22.10;;;8.10;;
74553;SDS011;63027;59.956;30.214;2022-08-24T08:32:51;19.27;;;7.07;;
74553;SDS011;63027;59.956;30.214;2022-08-24T08:35:17;16.58;;;7.20;;
74553;SDS011;63027;59.956;30.214;2022-08-24T08:37:44;17.80;;;7.55;;
74553;SDS011;63027;59.956;30.214;2022-08-24T08:40:13;18.23;;;7.20;;
74553;SDS011;63027;59.956;30.214;2022-08-24T08:42:59;18.23;;;7.50;;
74553;SDS011;63027;59.956;30.214;2022-08-24T08:45:29;15.00;;;7.20;;
74553;SDS011;63027;59.956;30.214;2022-08-24T08:57:25;17.25;;;6.97;;
74553;SDS011;63027;59.956;30.214;2022-08-24T09:02:16;14.98;;;6.80;;
74553;SDS011;63027;59.956;30.214;2022-08-24T09:24:46;15.63;;;6.53;;
74553;SDS011;63027;59.956;30.214;2022-08-24T09:29:44;20.00;;;7.03;;
74553;SDS011;63027;59.956;30.214;2022-08-24T09:32:36;15.27;;;6.53;;
74553;SDS011;63027;59.956;30.214;2022-08-24T09:35:16;13.57;;;6.85;;
74553;SDS011;63027;59.956;30.214;2022-08-24T09:37:57;12.93;;;6.40;;
74553;SDS011;63027;59.956;30.214;2022-08-24T10:03:00;17.92;;;7.63;;
74553;SDS011;63027;59.956;30.214;2022-08-24T10:05:40;15.40;;;6.97;;
74553;SDS011;63027;59.956;30.214;2022-08-24T10:08:30;13.63;;;6.85;;
74553;SDS011;63027;59.956;30.214;2022-08-24T10:17:16;15.00;;;6.50;;
74553;SDS011;63027;59.956;30.214;2022-08-24T10:49:15;13.60;;;6.82;;
74553;SDS011;63027;59.956;30.214;2022-08-24T10:52:16;14.90;;;6.97;;
74553;SDS011;63027;59.956;30.214;2022-08-24T10:54:52;12.50;;;6.55;;
74553;SDS011;63027;59.956;30.214;2022-08-24T10:57:34;17.05;;;6.95;;
74553;SDS011;63027;59.956;30.214;2022-08-24T11:02:37;11.38;;;6.55;;
74553;SDS011;63027;59.956;30.214;2022-08-24T11:05:05;15.15;;;7.38;;
74553;SDS011;63027;59.956;30.214;2022-08-24T11:07:33;13.35;;;7.05;;
74553;SDS011;63027;59.956;30.214;2022-08-24T11:10:00;17.10;;;6.80;;
74553;SDS011;63027;59.956;30.214;2022-08-24T11:15:09;13.45;;;7.07;;
74553;SDS011;63027;59.956;30.214;2022-08-24T11:20:28;13.18;;;6.75;;
74553;SDS011;63027;59.956;30.214;2022-08-24T11:25:34;11.07;;;6.63;;
74553;SDS011;63027;59.956;30.214;2022-08-24T11:28:23;11.45;;;7.50;;
74553;SDS011;63027;59.956;30.214;2022-08-24T11:30:56;13.00;;;7.25;;
74553;SDS011;63027;59.956;30.214;2022-08-24T11:33:25;14.10;;;6.82;;
74553;SDS011;63027;59.956;30.214;2022-08-24T11:35:56;12.75;;;7.60;;
74553;SDS011;63027;59.956;30.214;2022-08-24T11:38:25;12.77;;;7.45;;
74553;SDS011;63027;59.956;30.214;2022-08-24T11:40:56;13.80;;;6.95;;
74553;SDS011;63027;59.956;30.214;2022-08-24T11:46:09;12.93;;;7.28;;
74553;SDS011;63027;59.956;30.214;2022-08-24T11:53:57;12.23;;;6.80;;
74553;SDS011;63027;59.956;30.214;2022-08-24T11:56:30;13.50;;;6.85;;
74553;SDS011;63027;59.956;30.214;2022-08-24T12:02:27;12.45;;;6.18;;
74553;SDS011;63027;59.956;30.214;2022-08-24T12:21:17;12.73;;;6.97;;
74553;SDS011;63027;59.956;30.214;2022-08-24T12:23:47;11.63;;;6.43;;
74553;SDS011;63027;59.956;30.214;2022-08-24T12:26:23;9.93;;;6.50;;
74553;SDS011;63027;59.956;30.214;2022-08-24T12:28:52;10.18;;;6.85;;
74553;SDS011;63027;59.956;30.214;2022-08-24T12:31:22;10.98;;;6.35;;
74553;SDS011;63027;59.956;30.214;2022-08-24T12:33:58;11.15;;;6.15;;
74553;SDS011;63027;59.956;30.214;2022-08-24T12:36:34;10.73;;;6.20;;
74553;SDS011;63027;59.956;30.214;2022-08-24T12:39:11;12.30;;;5.88;;
74553;SDS011;63027;59.956;30.214;2022-08-24T12:44:44;11.00;;;6.35;;
74553;SDS011;63027;59.956;30.214;2022-08-24T12:47:24;8.93;;;6.38;;
74553;SDS011;63027;59.956;30.214;2022-08-24T12:50:00;11.07;;;6.55;;
74553;SDS011;63027;59.956;30.214;2022-08-24T12:58:09;8.98;;;6.22;;
74553;SDS011;63027;59.956;30.214;2022-08-24T13:00:55;9.68;;;6.78;;
74553;SDS011;63027;59.956;30.214;2022-08-24T13:03:43;10.68;;;6.40;;
74553;SDS011;63027;59.956;30.214;2022-08-24T13:06:10;12.30;;;5.95;;
74553;SDS011;63027;59.956;30.214;2022-08-24T13:08:46;14.63;;;5.75;;
74553;SDS011;63027;59.956;30.214;2022-08-24T13:11:31;7.57;;;5.82;;
74553;SDS011;63027;59.956;30.214;2022-08-24T13:14:06;10.52;;;6.50;;
74553;SDS011;63027;59.956;30.214;2022-08-24T13:16:50;15.18;;;6.38;;
74553;SDS011;63027;59.956;30.214;2022-08-24T13:19:38;10.90;;;6.15;;
74553;SDS011;63027;59.956;30.214;2022-08-24T13:32:28;9.60;;;6.25;;
74553;SDS011;63027;59.956;30.214;2022-08-24T13:34:57;13.02;;;6.20;;
74553;SDS011;63027;59.956;30.214;2022-08-24T13:37:27;8.48;;;6.00;;
74553;SDS011;63027;59.956;30.214;2022-08-24T13:40:01;9.20;;;5.43;;
74553;SDS011;63027;59.956;30.214;2022-08-24T13:45:24;9.95;;;6.18;;
74553;SDS011;63027;59.956;30.214;2022-08-24T13:47:58;12.88;;;6.25;;
74553;SDS011;63027;59.956;30.214;2022-08-24T13:51:19;15.68;;;6.30;;
74553;SDS011;63027;59.956;30.214;2022-08-24T13:59:20;13.38;;;5.78;;
74553;SDS011;63027;59.956;30.214;2022-08-24T14:05:00;12.40;;;5.68;;
74553;SDS011;63027;59.956;30.214;2022-08-24T14:07:58;15.70;;;5.57;;
74553;SDS011;63027;59.956;30.214;2022-08-24T14:11:01;12.65;;;6.07;;
74553;SDS011;63027;59.956;30.214;2022-08-24T14:14:01;14.45;;;5.80;;
74553;SDS011;63027;59.956;30.214;2022-08-24T14:24:48;10.82;;;5.97;;
74553;SDS011;63027;59.956;30.214;2022-08-24T14:27:41;10.55;;;5.80;;
74553;SDS011;63027;59.956;30.214;2022-08-24T14:35:16;11.50;;;5.90;;
74553;SDS011;63027;59.956;30.214;2022-08-24T14:48:35;12.48;;;5.30;;
74553;SDS011;63027;59.956;30.214;2022-08-24T14:54:06;9.00;;;5.68;;
74553;SDS011;63027;59.956;30.214;2022-08-24T15:05:09;8.20;;;5.38;;
74553;SDS011;63027;59.956;30.214;2022-08-24T15:19:18;7.55;;;5.85;;
74553;SDS011;63027;59.956;30.214;2022-08-24T15:24:38;11.80;;;6.60;;
74553;SDS011;63027;59.956;30.214;2022-08-24T15:27:17;9.30;;;6.00;;
74553;SDS011;63027;59.956;30.214;2022-08-24T15:29:52;12.30;;;6.38;;
74553;SDS011;63027;59.956;30.214;2022-08-24T15:32:24;8.65;;;5.25;;
74553;SDS011;63027;59.956;30.214;2022-08-24T15:34:55;8.40;;;6.18;;
74553;SDS011;63027;59.956;30.214;2022-08-24T15:37:27;7.07;;;5.95;;
74553;SDS011;63027;59.956;30.214;2022-08-24T15:39:58;10.00;;;5.57;;
74553;SDS011;63027;59.956;30.214;2022-08-24T15:42:24;12.63;;;5.90;;
74553;SDS011;63027;59.956;30.214;2022-08-24T15:44:54;11.02;;;5.80;;
74553;SDS011;63027;59.956;30.214;2022-08-24T15:47:26;15.48;;;6.43;;
74553;SDS011;63027;59.956;30.214;2022-08-24T15:50:07;11.55;;;6.40;;
74553;SDS011;63027;59.956;30.214;2022-08-24T15:52:54;12.07;;;6.25;;
74553;SDS011;63027;59.956;30.214;2022-08-24T16:03:56;9.65;;;6.47;;
74553;SDS011;63027;59.956;30.214;2022-08-24T16:06:35;8.25;;;6.15;;
74553;SDS011;63027;59.956;30.214;2022-08-24T16:11:31;8.73;;;6.18;;
74553;SDS011;63027;59.956;30.214;2022-08-24T16:14:00;11.88;;;6.45;;
74553;SDS011;63027;59.956;30.214;2022-08-24T16:16:32;7.68;;;6.20;;
74553;SDS011;63027;59.956;30.214;2022-08-24T16:19:02;9.73;;;7.15;;
74553;SDS011;63027;59.956;30.214;2022-08-24T16:21:31;12.60;;;6.38;;
74553;SDS011;63027;59.956;30.214;2022-08-24T16:24:12;10.32;;;6.45;;
74553;SDS011;63027;59.956;30.214;2022-08-24T16:27:06;11.25;;;6.25;;
74553;SDS011;63027;59.956;30.214;2022-08-24T16:34:37;9.65;;;6.38;;
74553;SDS011;63027;59.956;30.214;2022-08-24T16:37:03;10.73;;;7.15;;
74553;SDS011;63027;59.956;30.214;2022-08-24T16:39:30;10.30;;;6.57;;
74553;SDS011;63027;59.956;30.214;2022-08-24T16:41:57;11.75;;;6.85;;
74553;SDS011;63027;59.956;30.214;2022-08-24T16:44:27;12.55;;;6.63;;
74553;SDS011;63027;59.956;30.214;2022-08-24T16:46:55;6.38;;;5.65;;
74553;SDS011;63027;59.956;30.214;2022-08-24T16:49:21;12.00;;;6.53;;
74553;SDS011;63027;59.956;30.214;2022-08-24T16:51:46;8.68;;;6.35;;
74553;SDS011;63027;59.956;30.214;2022-08-24T16:54:12;9.02;;;6.07;;
74553;SDS011;63027;59.956;30.214;2022-08-24T16:56:38;11.40;;;6.80;;
74553;SDS011;63027;59.956;30.214;2022-08-24T16:59:04;9.05;;;6.15;;
74553;SDS011;63027;59.956;30.214;2022-08-24T17:01:31;11.35;;;6.70;;
74553;SDS011;63027;59.956;30.214;2022-08-24T17:03:56;12.57;;;7.22;;
74553;SDS011;63027;59.956;30.214;2022-08-24T17:06:22;13.88;;;6.88;;
74553;SDS011;63027;59.956;30.214;2022-08-24T17:08:48;14.30;;;6.70;;
74553;SDS011;63027;59.956;30.214;2022-08-24T17:11:14;16.45;;;6.97;;
74553;SDS011;63027;59.956;30.214;2022-08-24T17:13:40;19.98;;;7.32;;
74553;SDS011;63027;59.956;30.214;2022-08-24T17:16:07;15.48;;;8.18;;
74553;SDS011;63027;59.956;30.214;2022-08-24T17:18:34;14.82;;;7.10;;
74553;SDS011;63027;59.956;30.214;2022-08-24T17:20:59;12.45;;;6.72;;
74553;SDS011;63027;59.956;30.214;2022-08-24T17:23:25;15.88;;;7.55;;
74553;SDS011;63027;59.956;30.214;2022-08-24T17:25:51;13.05;;;6.75;;
74553;SDS011;63027;59.956;30.214;2022-08-24T17:28:17;15.43;;;7.28;;
74553;SDS011;63027;59.956;30.214;2022-08-24T17:30:43;9.38;;;7.28;;
74553;SDS011;63027;59.956;30.214;2022-08-24T17:33:09;14.25;;;8.27;;
74553;SDS011;63027;59.956;30.214;2022-08-24T17:35:38;14.73;;;7.93;;
74553;SDS011;63027;59.956;30.214;2022-08-24T17:38:05;15.55;;;7.93;;
74553;SDS011;63027;59.956;30.214;2022-08-24T17:40:31;16.65;;;8.40;;
74553;SDS011;63027;59.956;30.214;2022-08-24T17:42:57;15.07;;;7.82;;
74553;SDS011;63027;59.956;30.214;2022-08-24T17:45:23;13.02;;;7.60;;
74553;SDS011;63027;59.956;30.214;2022-08-24T17:47:49;16.35;;;7.57;;
74553;SDS011;63027;59.956;30.214;2022-08-24T17:50:17;17.52;;;7.90;;
74553;SDS011;63027;59.956;30.214;2022-08-24T17:52:44;11.52;;;7.03;;
74553;SDS011;63027;59.956;30.214;2022-08-24T17:55:11;14.63;;;7.20;;
74553;SDS011;63027;59.956;30.214;2022-08-24T17:57:38;12.27;;;7.50;;
74553;SDS011;63027;59.956;30.214;2022-08-24T18:00:06;10.88;;;7.22;;
74553;SDS011;63027;59.956;30.214;2022-08-24T18:02:37;13.75;;;7.75;;
74553;SDS011;63027;59.956;30.214;2022-08-24T18:05:04;16.73;;;7.97;;
74553;SDS011;63027;59.956;30.214;2022-08-24T18:07:32;16.85;;;7.82;;
74553;SDS011;63027;59.956;30.214;2022-08-24T18:10:00;17.30;;;7.57;;
74553;SDS011;63027;59.956;30.214;2022-08-24T18:12:28;9.80;;;7.45;;
74553;SDS011;63027;59.956;30.214;2022-08-24T18:14:54;16.50;;;7.97;;
74553;SDS011;63027;59.956;30.214;2022-08-24T18:17:31;13.82;;;7.68;;
74553;SDS011;63027;59.956;30.214;2022-08-24T18:20:02;14.30;;;8.43;;
74553;SDS011;63027;59.956;30.214;2022-08-24T18:22:29;14.52;;;7.68;;
74553;SDS011;63027;59.956;30.214;2022-08-24T18:24:55;13.98;;;8.05;;
74553;SDS011;63027;59.956;30.214;2022-08-24T18:27:23;12.88;;;7.85;;
74553;SDS011;63027;59.956;30.214;2022-08-24T18:29:51;14.40;;;7.25;;
74553;SDS011;63027;59.956;30.214;2022-08-24T18:32:17;13.88;;;7.93;;
74553;SDS011;63027;59.956;30.214;2022-08-24T18:34:42;14.23;;;8.00;;